Time;durP1;ratioP1;P1;durP2;ratioP2;P2;SDS_P1;SDS_P2;PMS_P1;PMS_P2;Temp;Humidity;BMP_temperature;BMP_pressure;BME280_temperature;BME280_humidity;BME280_pressure;Samples;Min_cycle;Max_cycle;Signal;HPM_P1;HPM_P2
2023/01/07 00:02:19;;;;;;;17.13;10.05;;;5.80;99.90;;;;;;5036747;28;20362;-46
2023/01/07 00:04:44;;;;;;;17.58;10.50;;;5.80;99.90;;;;;;5055268;28;20120;-46
2023/01/07 00:07:10;;;;;;;15.85;10.70;;;5.90;99.90;;;;;;5055229;28;20074;-46
2023/01/07 00:09:36;;;;;;;17.52;11.05;;;5.90;99.90;;;;;;5055006;28;20037;-46
2023/01/07 00:12:02;;;;;;;17.83;10.45;;;5.90;99.90;;;;;;5036343;28;20393;-46
2023/01/07 00:14:27;;;;;;;19.92;11.57;;;5.90;99.90;;;;;;5054893;28;20032;-46
2023/01/07 00:16:53;;;;;;;17.20;10.80;;;6.00;99.90;;;;;;5036456;28;20071;-46
2023/01/07 00:19:21;;;;;;;16.60;10.63;;;6.00;99.90;;;;;;5054934;28;20040;-46
2023/01/07 00:21:46;;;;;;;17.20;11.32;;;6.10;99.90;;;;;;5071971;28;20558;-46
2023/01/07 00:24:12;;;;;;;17.63;12.18;;;6.10;99.90;;;;;;5057427;28;20029;-53
2023/01/07 00:26:39;;;;;;;21.70;12.07;;;6.20;99.90;;;;;;5022521;28;20437;-45
2023/01/07 00:29:05;;;;;;;16.73;11.13;;;6.20;99.90;;;;;;5055924;28;20388;-55
2023/01/07 00:31:33;;;;;;;17.30;10.68;;;6.10;99.90;;;;;;5057014;28;20025;-46
2023/01/07 00:36:30;;;;;;;16.17;10.60;;;5.80;99.90;;;;;;5054854;28;20021;-46
2023/01/07 00:39:00;;;;;;;13.48;9.05;;;5.80;99.90;;;;;;5053344;28;20041;-46
2023/01/07 00:41:27;;;;;;;17.50;10.68;;;5.80;99.90;;;;;;5054791;28;20039;-46
2023/01/07 00:43:53;;;;;;;17.83;11.63;;;5.90;99.90;;;;;;5055800;28;20035;-46
2023/01/07 00:46:19;;;;;;;23.15;12.45;;;6.10;99.90;;;;;;5056547;28;20039;-46
2023/01/07 00:48:45;;;;;;;20.40;12.30;;;6.00;99.90;;;;;;5056135;28;20381;-46
2023/01/07 00:51:13;;;;;;;19.33;12.30;;;5.90;99.90;;;;;;5055356;28;20039;-46
2023/01/07 00:53:39;;;;;;;20.65;12.90;;;6.10;99.90;;;;;;5055635;28;20102;-46
2023/01/07 00:56:06;;;;;;;16.08;11.30;;;6.10;99.90;;;;;;5056086;28;20033;-48
2023/01/07 00:58:32;;;;;;;17.17;11.30;;;6.10;99.90;;;;;;5020373;28;20115;-53
2023/01/07 01:01:00;;;;;;;17.55;11.32;;;6.00;99.90;;;;;;5055635;28;20060;-46
2023/01/07 01:03:28;;;;;;;19.45;11.95;;;5.80;99.90;;;;;;5054811;28;20029;-46
2023/01/07 01:05:54;;;;;;;26.23;14.40;;;5.70;99.90;;;;;;5055058;28;20021;-45
2023/01/07 01:08:20;;;;;;;20.30;12.90;;;5.80;99.90;;;;;;5053877;28;20021;-46
2023/01/07 01:10:46;;;;;;;18.90;12.55;;;5.70;99.90;;;;;;5053663;28;20045;-46
2023/01/07 01:13:15;;;;;;;18.08;11.90;;;5.80;99.90;;;;;;5053624;28;20043;-45
2023/01/07 01:15:43;;;;;;;18.70;11.23;;;5.70;99.90;;;;;;5053771;28;20021;-46
2023/01/07 01:18:10;;;;;;;20.13;12.48;;;5.70;99.90;;;;;;5051721;28;20037;-46
2023/01/07 01:20:36;;;;;;;17.17;11.10;;;5.80;99.90;;;;;;5053874;28;20021;-46
2023/01/07 01:23:02;;;;;;;20.98;11.68;;;6.00;99.90;;;;;;5053807;28;20052;-46
2023/01/07 01:25:28;;;;;;;16.98;11.90;;;6.10;99.90;;;;;;5053509;28;20052;-46
2023/01/07 01:27:54;;;;;;;22.00;11.50;;;6.20;99.90;;;;;;5053631;28;20122;-46
2023/01/07 01:30:20;;;;;;;18.98;12.35;;;6.10;99.90;;;;;;5053462;28;20134;-46
2023/01/07 01:32:45;;;;;;;24.55;15.35;;;5.90;99.90;;;;;;5068764;28;20044;-46
2023/01/07 01:35:11;;;;;;;25.10;16.90;;;5.90;99.90;;;;;;5067946;28;20044;-46
2023/01/07 01:37:37;;;;;;;23.15;16.52;;;6.10;99.90;;;;;;5053712;28;20029;-46
2023/01/07 01:40:05;;;;;;;20.98;15.07;;;6.10;99.90;;;;;;5053330;28;20418;-46
2023/01/07 01:42:32;;;;;;;20.60;14.25;;;6.20;99.90;;;;;;5018329;28;20044;-46
2023/01/07 01:45:02;;;;;;;17.75;12.00;;;6.30;99.90;;;;;;5054864;28;20029;-46
2023/01/07 01:47:45;;;;;;;17.08;12.30;;;6.10;99.90;;;;;;5012957;28;20121;-48
2023/01/07 01:50:22;;;;;;;20.02;12.65;;;6.20;99.90;;;;;;5011554;28;20125;-46
2023/01/07 01:53:03;;;;;;;21.45;13.85;;;6.40;99.90;;;;;;5010705;28;20061;-46
2023/01/07 01:55:34;;;;;;;19.77;13.35;;;6.50;99.90;;;;;;5010678;28;20045;-45
2023/01/07 01:58:03;;;;;;;22.05;13.75;;;6.40;99.90;;;;;;5011361;28;20041;-46
2023/01/07 02:00:31;;;;;;;20.85;14.85;;;6.50;99.90;;;;;;5010739;28;20394;-46
2023/01/07 02:02:58;;;;;;;22.73;15.65;;;6.40;99.90;;;;;;5011394;28;20132;-46
2023/01/07 02:05:30;;;;;;;20.80;16.17;;;6.60;99.90;;;;;;5010773;28;20030;-46
2023/01/07 02:07:56;;;;;;;20.92;14.60;;;6.70;99.90;;;;;;5011121;28;20117;-46
2023/01/07 02:10:23;;;;;;;20.38;14.00;;;6.50;99.90;;;;;;5010759;28;20121;-45
2023/01/07 02:13:08;;;;;;;23.55;17.40;;;6.00;99.90;;;;;;4994720;28;20117;-46
2023/01/07 02:15:51;;;;;;;21.10;13.75;;;5.70;99.90;;;;;;4991288;28;20483;-46
2023/01/07 02:18:55;;;;;;;22.30;14.18;;;5.60;99.90;;;;;;5010378;28;20500;-46
2023/01/07 02:21:39;;;;;;;15.73;11.52;;;5.40;99.90;;;;;;5032908;28;20042;-46
2023/01/07 02:24:36;;;;;;;18.30;11.95;;;5.50;99.90;;;;;;5033019;28;20021;-46
2023/01/07 02:27:24;;;;;;;19.73;13.55;;;5.60;99.90;;;;;;5030543;28;20585;-47
2023/01/07 02:30:23;;;;;;;19.65;13.60;;;6.00;99.90;;;;;;5048131;28;20208;-46
2023/01/07 02:32:58;;;;;;;28.33;16.85;;;6.20;99.90;;;;;;5033034;28;20033;-46
2023/01/07 02:35:47;;;;;;;27.13;15.65;;;6.50;99.90;;;;;;5033746;28;20064;-46
2023/01/07 02:38:26;;;;;;;45.70;25.65;;;6.50;99.90;;;;;;5052770;28;20033;-46
2023/01/07 02:41:10;;;;;;;26.02;18.00;;;6.30;99.90;;;;;;5053059;28;20020;-46
2023/01/07 02:43:48;;;;;;;22.70;16.75;;;6.00;99.90;;;;;;5052426;28;20035;-46
2023/01/07 02:46:29;;;;;;;19.05;13.50;;;5.70;99.90;;;;;;5050639;28;20032;-46
2023/01/07 02:49:03;;;;;;;21.88;12.90;;;5.80;99.90;;;;;;5052784;28;20029;-46
2023/01/07 02:51:35;;;;;;;17.48;11.43;;;5.50;99.90;;;;;;5052630;28;20047;-46
2023/01/07 02:54:01;;;;;;;17.50;11.88;;;5.40;99.90;;;;;;5052472;28;20094;-47
2023/01/07 02:56:54;;;;;;;16.15;10.05;;;5.40;99.90;;;;;;5070244;28;20388;-45
2023/01/07 02:59:43;;;;;;;18.73;11.07;;;5.30;99.90;;;;;;5070307;28;20192;-45
2023/01/07 03:02:29;;;;;;;18.33;11.40;;;5.10;99.90;;;;;;5069696;28;20122;-46
2023/01/07 03:05:07;;;;;;;18.13;11.52;;;5.20;99.90;;;;;;5073290;28;20540;-46
2023/01/07 03:07:41;;;;;;;32.30;19.75;;;5.20;99.90;;;;;;5075805;28;20032;-46
2023/01/07 03:10:43;;;;;;;25.80;17.10;;;5.40;99.90;;;;;;5057411;28;20488;-46
2023/01/07 03:13:17;;;;;;;23.45;14.07;;;5.90;99.90;;;;;;5013978;28;20037;-45
2023/01/07 03:15:52;;;;;;;20.63;11.95;;;5.70;99.90;;;;;;5014031;28;20046;-45
2023/01/07 03:18:26;;;;;;;28.35;18.05;;;5.50;99.90;;;;;;5014027;28;20041;-46
2023/01/07 03:21:00;;;;;;;26.08;15.27;;;5.80;99.90;;;;;;5013761;28;20449;-46
2023/01/07 03:23:27;;;;;;;29.58;17.05;;;5.90;99.90;;;;;;5013864;28;20441;-46
2023/01/07 03:25:54;;;;;;;26.05;16.25;;;6.10;99.90;;;;;;5013864;28;20062;-46
2023/01/07 03:28:34;;;;;;;26.08;15.63;;;6.20;99.90;;;;;;5013534;28;20513;-46
2023/01/07 03:31:00;;;;;;;26.10;17.15;;;5.90;99.90;;;;;;5013723;28;20057;-46
2023/01/07 03:33:38;;;;;;;28.98;19.52;;;5.80;99.90;;;;;;5013719;28;20052;-46
2023/01/07 03:36:05;;;;;;;26.25;14.82;;;6.00;99.90;;;;;;5013654;28;20041;-46
2023/01/07 03:38:33;;;;;;;24.88;15.98;;;5.70;99.90;;;;;;5013595;28;20038;-46
2023/01/07 03:40:59;;;;;;;20.50;13.75;;;5.60;99.90;;;;;;4981123;28;20030;-46
2023/01/07 03:43:25;;;;;;;21.70;14.05;;;5.40;99.90;;;;;;5013679;28;20065;-46
2023/01/07 03:45:52;;;;;;;23.67;15.15;;;5.30;99.90;;;;;;4996736;28;20070;-48
2023/01/07 03:48:18;;;;;;;23.10;14.45;;;5.60;99.90;;;;;;5013658;28;20084;-46
2023/01/07 03:50:44;;;;;;;21.58;14.05;;;5.80;99.90;;;;;;5032947;28;20041;-46
2023/01/07 03:53:09;;;;;;;20.13;13.98;;;5.90;99.90;;;;;;5036413;28;20202;-46
2023/01/07 03:55:35;;;;;;;17.83;11.43;;;5.60;99.90;;;;;;5055302;28;20025;-45
2023/01/07 03:58:01;;;;;;;21.13;12.43;;;5.30;99.90;;;;;;5055682;28;20407;-47
2023/01/07 04:00:27;;;;;;;21.67;13.40;;;5.00;99.90;;;;;;5055176;28;20032;-45
2023/01/07 04:02:52;;;;;;;15.68;10.32;;;5.00;99.90;;;;;;5036589;28;20037;-46
2023/01/07 04:05:18;;;;;;;19.92;11.90;;;5.10;99.90;;;;;;5054832;28;20036;-46
2023/01/07 04:07:44;;;;;;;29.25;16.17;;;5.50;99.90;;;;;;5036468;28;20033;-46
2023/01/07 04:10:10;;;;;;;26.88;14.70;;;5.70;99.90;;;;;;5069600;28;20132;-45
2023/01/07 04:12:36;;;;;;;23.77;15.85;;;5.90;99.90;;;;;;5054841;28;20397;-46
2023/01/07 04:15:03;;;;;;;22.88;15.05;;;6.10;99.90;;;;;;5054762;28;20028;-47
2023/01/07 04:17:28;;;;;;;23.63;16.55;;;6.10;99.90;;;;;;5054101;28;20111;-46
2023/01/07 04:19:54;;;;;;;24.17;15.55;;;6.10;99.90;;;;;;5054954;28;20125;-46
2023/01/07 04:22:20;;;;;;;27.38;16.08;;;6.20;99.90;;;;;;5035839;28;20041;-45
2023/01/07 04:24:46;;;;;;;22.45;15.75;;;6.20;99.90;;;;;;5054684;28;20499;-45
2023/01/07 04:27:11;;;;;;;23.35;15.75;;;6.20;99.90;;;;;;5055026;28;20112;-46
2023/01/07 04:29:37;;;;;;;27.73;17.77;;;6.20;99.90;;;;;;5054379;28;20087;-46
2023/01/07 04:32:03;;;;;;;28.60;18.98;;;6.10;99.90;;;;;;5052515;28;20041;-46
2023/01/07 04:34:29;;;;;;;35.08;24.40;;;6.10;99.90;;;;;;5054651;28;20427;-45
2023/01/07 04:36:54;;;;;;;37.58;28.42;;;5.90;99.90;;;;;;5035924;28;20044;-46
2023/01/07 04:39:20;;;;;;;33.70;25.05;;;5.70;99.90;;;;;;5054402;28;20068;-46
2023/01/07 04:41:46;;;;;;;34.00;25.38;;;5.80;99.90;;;;;;5054457;28;20064;-46
2023/01/07 04:44:14;;;;;;;54.05;35.10;;;6.00;99.90;;;;;;5054034;28;20070;-45
2023/01/07 04:46:39;;;;;;;128.60;75.57;;;6.10;99.90;;;;;;5054487;28;20033;-46
2023/01/07 04:49:05;;;;;;;45.42;30.05;;;6.00;99.90;;;;;;5054355;28;20484;-46
2023/01/07 04:51:31;;;;;;;18.00;12.60;;;5.50;99.90;;;;;;5053965;28;20710;-46
2023/01/07 04:53:57;;;;;;;15.25;10.65;;;5.40;99.90;;;;;;5054357;28;20574;-45
2023/01/07 04:56:23;;;;;;;16.95;10.23;;;4.80;99.90;;;;;;5052942;28;20115;-46
2023/01/07 04:58:49;;;;;;;18.63;12.60;;;4.80;99.90;;;;;;5053995;28;20055;-45
2023/01/07 05:01:14;;;;;;;28.27;18.52;;;4.80;99.90;;;;;;5054206;28;20029;-46
2023/01/07 05:03:40;;;;;;;34.53;21.63;;;5.30;99.90;;;;;;5053314;28;20442;-46
2023/01/07 05:06:08;;;;;;;38.13;26.35;;;5.60;99.90;;;;;;5053426;28;20029;-46
2023/01/07 05:08:34;;;;;;;29.83;20.30;;;5.80;99.90;;;;;;5035537;28;20087;-46
2023/01/07 05:11:00;;;;;;;23.90;17.52;;;6.00;99.90;;;;;;5053941;28;20040;-46
2023/01/07 05:13:27;;;;;;;27.00;17.40;;;6.00;99.90;;;;;;5054115;28;20043;-46
2023/01/07 05:15:52;;;;;;;26.30;18.98;;;6.10;99.90;;;;;;5054008;28;20050;-45
2023/01/07 05:18:18;;;;;;;23.00;16.73;;;6.10;99.90;;;;;;5035122;28;20441;-46
2023/01/07 05:20:47;;;;;;;25.63;19.13;;;6.10;99.90;;;;;;5053672;28;20024;-45
2023/01/07 05:23:13;;;;;;;25.55;19.85;;;6.10;99.90;;;;;;5053464;28;20089;-46
2023/01/07 05:25:39;;;;;;;30.25;20.80;;;6.10;99.90;;;;;;5053547;28;20028;-45
2023/01/07 05:28:04;;;;;;;29.85;22.58;;;6.10;99.90;;;;;;5052912;28;20034;-46
2023/01/07 05:30:30;;;;;;;25.17;19.55;;;6.00;99.90;;;;;;5051095;28;20050;-45
2023/01/07 05:32:56;;;;;;;40.22;27.67;;;6.10;99.90;;;;;;5053644;28;20413;-46
2023/01/07 05:35:22;;;;;;;36.65;26.33;;;6.00;99.90;;;;;;5053325;28;20021;-45
2023/01/07 05:37:47;;;;;;;43.55;30.85;;;6.10;99.90;;;;;;5037164;28;20042;-46
2023/01/07 05:40:13;;;;;;;31.05;19.25;;;6.30;99.90;;;;;;5042669;28;20079;-46
2023/01/07 05:42:39;;;;;;;29.35;20.02;;;6.30;99.90;;;;;;5050732;28;20037;-46
2023/01/07 05:45:05;;;;;;;26.40;18.88;;;6.30;99.90;;;;;;5052864;28;20021;-46
2023/01/07 05:47:31;;;;;;;31.30;22.75;;;6.30;99.90;;;;;;5017271;28;20037;-46
2023/01/07 05:49:57;;;;;;;32.67;21.17;;;6.20;99.90;;;;;;5048186;28;20041;-46
2023/01/07 05:52:22;;;;;;;33.83;23.55;;;6.30;99.90;;;;;;5033906;28;20103;-46
2023/01/07 05:54:48;;;;;;;39.17;27.65;;;6.20;99.90;;;;;;5032796;28;20086;-46
2023/01/07 05:57:14;;;;;;;31.00;22.48;;;6.20;99.90;;;;;;5050393;28;20392;-46
2023/01/07 05:59:40;;;;;;;32.28;23.10;;;6.20;99.90;;;;;;5052526;28;20116;-46
2023/01/07 06:02:05;;;;;;;30.83;25.80;;;6.10;99.90;;;;;;5052600;28;20083;-45
2023/01/07 06:04:33;;;;;;;43.38;30.00;;;6.10;99.90;;;;;;5051927;28;20037;-46
2023/01/07 06:06:58;;;;;;;41.92;30.25;;;6.10;99.90;;;;;;5052495;28;20161;-46
2023/01/07 06:09:24;;;;;;;49.97;36.00;;;6.00;99.90;;;;;;5050292;28;20041;-46
2023/01/07 06:11:50;;;;;;;63.25;43.92;;;6.00;99.90;;;;;;5041215;28;20033;-46
2023/01/07 06:14:16;;;;;;;57.92;39.15;;;6.00;99.90;;;;;;5052162;28;20025;-46
2023/01/07 06:16:41;;;;;;;74.78;46.88;;;5.80;99.90;;;;;;5064377;28;20041;-46
2023/01/07 06:19:07;;;;;;;62.58;44.97;;;5.80;99.90;;;;;;5030761;28;20380;-46
2023/01/07 06:21:33;;;;;;;76.13;52.90;;;5.70;99.90;;;;;;5052174;28;20032;-46
2023/01/07 06:23:58;;;;;;;88.78;57.03;;;5.50;99.90;;;;;;5052076;28;20021;-46
2023/01/07 06:26:24;;;;;;;73.05;49.67;;;4.90;99.90;;;;;;5033790;28;20039;-46
2023/01/07 06:28:51;;;;;;;66.70;47.75;;;;;;;;;;5051903;28;20082;-46
2023/01/07 06:31:17;;;;;;;61.83;47.03;;;5.10;99.90;;;;;;5051678;28;20103;-45
2023/01/07 06:33:43;;;;;;;80.72;59.13;;;5.30;99.90;;;;;;5052928;28;20080;-46
2023/01/07 06:36:10;;;;;;;67.32;48.67;;;5.40;99.90;;;;;;5051419;28;20087;-46
2023/01/07 06:38:36;;;;;;;67.40;47.90;;;5.50;99.90;;;;;;5051124;28;20043;-45
2023/01/07 06:41:01;;;;;;;68.50;49.35;;;5.50;99.90;;;;;;5055514;28;20525;-46
2023/01/07 06:43:28;;;;;;;75.30;53.30;;;5.60;99.90;;;;;;5056628;28;20033;-45
2023/01/07 06:45:53;;;;;;;77.88;52.83;;;5.20;99.90;;;;;;5056485;28;20112;-46
2023/01/07 06:48:20;;;;;;;75.43;53.63;;;5.30;99.90;;;;;;5056574;28;20108;-46
2023/01/07 06:50:45;;;;;;;67.07;50.67;;;5.50;99.90;;;;;;5055588;28;20037;-46
2023/01/07 06:53:12;;;;;;;65.55;49.67;;;;;;;;;;5036810;28;20118;-46
2023/01/07 06:55:38;;;;;;;71.00;50.10;;;;;;;;;;5056717;28;20400;-46
2023/01/07 06:58:04;;;;;;;53.28;41.60;;;;;;;;;;5069456;28;20068;-46
2023/01/07 07:00:30;;;;;;;58.13;42.60;;;11.10;99.90;;;;;;5035602;28;20044;-46
2023/01/07 07:02:55;;;;;;;52.58;41.55;;;12.30;99.90;;;;;;5036451;28;20094;-46
2023/01/07 07:05:21;;;;;;;54.35;41.63;;;13.50;99.90;;;;;;5054598;28;20020;-46
2023/01/07 07:07:47;;;;;;;52.08;41.90;;;15.20;99.90;;;;;;5036414;28;20551;-48
2023/01/07 07:10:13;;;;;;;139.02;109.85;;;16.30;99.90;;;;;;5050652;28;20072;-45
2023/01/07 07:12:39;;;;;;;54.17;40.85;;;17.10;99.90;;;;;;5051904;28;20048;-45
2023/01/07 07:15:07;;;;;;;53.90;42.47;;;;;;;;;;5038230;28;20123;-45
2023/01/07 07:17:33;;;;;;;50.55;41.15;;;18.00;99.90;;;;;;5036055;28;20029;-45
2023/01/07 07:19:59;;;;;;;49.88;39.97;;;;;;;;;;5056257;28;20036;-45
2023/01/07 07:22:24;;;;;;;110.38;78.18;;;19.10;95.30;;;;;;5055784;28;20479;-45
2023/01/07 07:24:50;;;;;;;73.05;58.15;;;20.20;93.90;;;;;;5070893;28;20045;-45
2023/01/07 07:27:16;;;;;;;76.55;59.97;;;20.10;91.70;;;;;;5036021;28;20446;-46
2023/01/07 07:29:42;;;;;;;111.63;82.43;;;19.20;91.30;;;;;;5004222;28;20041;-45
2023/01/07 07:32:08;;;;;;;133.07;91.88;;;19.90;91.50;;;;;;5053624;28;20385;-46
2023/01/07 07:34:34;;;;;;;75.40;58.08;;;;;;;;;;5054837;28;20388;-46
2023/01/07 07:37:00;;;;;;;69.82;52.67;;;;;;;;;;5055141;28;20053;-46
2023/01/07 07:39:26;;;;;;;55.88;45.45;;;;;;;;;;5055123;28;20606;-46
2023/01/07 07:41:52;;;;;;;54.67;42.58;;;;;;;;;;5053458;28;20024;-45
2023/01/07 07:44:18;;;;;;;56.80;43.85;;;;;;;;;;5055044;28;20037;-46
2023/01/07 07:46:44;;;;;;;55.35;43.22;;;;;;;;;;5055580;28;20028;-45
2023/01/07 07:49:11;;;;;;;57.50;45.85;;;;;;;;;;5054968;28;20043;-46
2023/01/07 07:51:37;;;;;;;78.95;61.90;;;;;;;;;;5054055;28;20057;-46
2023/01/07 07:54:04;;;;;;;68.68;55.22;;;;;;;;;;5055309;28;20124;-46
2023/01/07 07:56:30;;;;;;;66.68;53.65;;;;;;;;;;5054475;28;20120;-46
2023/01/07 07:58:56;;;;;;;74.60;54.08;;;;;;;;;;5054740;28;20029;-46
2023/01/07 08:01:22;;;;;;;66.53;54.88;;;24.60;82.60;;;;;;5054481;28;20029;-43
2023/01/07 08:03:48;;;;;;;76.80;61.67;;;;;;;;;;5054481;28;20087;-45
2023/01/07 08:06:14;;;;;;;99.07;73.35;;;25.00;87.50;;;;;;5052543;28;20033;-45
2023/01/07 08:08:41;;;;;;;110.28;80.90;;;;;;;;;;5054787;28;20427;-44
2023/01/07 08:11:07;;;;;;;96.32;77.20;;;25.00;77.90;;;;;;5051812;28;20055;-46
2023/01/07 08:13:33;;;;;;;92.72;69.57;;;;;;;;;;5054943;28;20040;-44
2023/01/07 08:15:59;;;;;;;81.45;66.85;;;;;;;;;;5053557;28;20136;-45
2023/01/07 08:18:25;;;;;;;79.97;66.68;;;25.20;75.80;;;;;;5068304;28;20036;-45
2023/01/07 08:20:51;;;;;;;82.55;66.60;;;;;;;;;;5050883;28;20121;-45
2023/01/07 08:23:17;;;;;;;90.68;72.32;;;;;;;;;;5051972;28;20048;-45
2023/01/07 08:25:43;;;;;;;90.88;73.22;;;25.90;75.10;;;;;;5053756;28;20025;-45
2023/01/07 08:28:10;;;;;;;99.70;82.47;;;25.40;75.30;;;;;;5046969;28;20025;-45
2023/01/07 08:30:36;;;;;;;98.10;82.25;;;;;;;;;;5054775;28;20041;-45
2023/01/07 08:33:04;;;;;;;111.53;89.82;;;;;;;;;;5048955;28;20502;-45
2023/01/07 08:35:30;;;;;;;109.07;88.82;;;26.50;76.80;;;;;;5054330;28;20021;-45
2023/01/07 08:38:07;;;;;;;119.38;97.47;;;26.10;73.80;;;;;;5051515;28;20132;-44
2023/01/07 08:40:34;;;;;;;103.95;88.05;;;;;;;;;;5050674;28;20036;-45
2023/01/07 08:43:04;;;;;;;80.78;71.95;;;;;;;;;;5052950;28;20427;-44
2023/01/07 08:45:30;;;;;;;70.20;62.55;;;;;;;;;;5053938;28;20123;-44
2023/01/07 08:47:56;;;;;;;57.95;51.85;;;;;;;;;;5053944;28;20496;-46
2023/01/07 08:50:27;;;;;;;63.25;55.50;;;;;;;;;;5052307;28;20116;-45
2023/01/07 08:52:53;;;;;;;46.42;41.72;;;;;;;;;;5053432;28;20053;-45
2023/01/07 08:55:19;;;;;;;43.10;38.47;;;;;;;;;;5052739;28;20051;-44
2023/01/07 08:57:46;;;;;;;40.35;36.00;;;28.30;95.50;;;;;;5053385;28;20055;-46
2023/01/07 09:00:13;;;;;;;39.45;34.72;;;;;;;;;;5054246;28;20476;-45
2023/01/07 09:02:39;;;;;;;34.00;30.40;;;;;;;;;;5030187;28;20037;-45
2023/01/07 09:05:06;;;;;;;38.15;34.30;;;;;;;;;;5027701;28;20039;-44
2023/01/07 09:07:32;;;;;;;37.78;33.85;;;;;;;;;;4998986;28;20037;-45
2023/01/07 09:09:57;;;;;;;40.35;33.58;;;28.50;70.50;;;;;;4998284;28;20053;-45
2023/01/07 09:12:23;;;;;;;35.20;31.42;;;27.80;71.20;;;;;;5031514;28;20380;-46
2023/01/07 09:14:49;;;;;;;35.58;31.85;;;28.10;71.00;;;;;;5030267;28;20037;-45
2023/01/07 09:17:15;;;;;;;36.97;29.98;;;;;;;;;;5024205;28;20051;-45
2023/01/07 09:19:41;;;;;;;35.00;30.50;;;28.40;70.60;;;;;;5040300;28;20036;-45
2023/01/07 09:22:06;;;;;;;34.05;30.45;;;27.00;71.70;;;;;;4998521;28;20034;-45
2023/01/07 09:24:32;;;;;;;32.55;29.17;;;27.40;71.90;;;;;;5029993;28;20030;-46
2023/01/07 09:26:58;;;;;;;32.55;29.05;;;27.40;71.40;;;;;;5031401;28;20044;-45
2023/01/07 09:29:23;;;;;;;34.03;30.42;;;27.70;71.00;;;;;;5027428;28;20033;-45
2023/01/07 09:31:49;;;;;;;35.30;31.45;;;27.90;71.00;;;;;;4966402;28;20047;-46
2023/01/07 09:34:15;;;;;;;33.40;29.85;;;28.00;70.90;;;;;;4998217;28;20033;-45
2023/01/07 09:36:41;;;;;;;37.55;33.50;;;28.10;70.60;;;;;;5027887;28;20022;-45
2023/01/07 09:39:07;;;;;;;30.38;27.27;;;28.00;71.30;;;;;;5032731;28;20075;-46
2023/01/07 09:41:33;;;;;;;34.00;29.98;;;28.30;70.20;;;;;;5034463;28;20052;-47
2023/01/07 09:44:09;;;;;;;32.13;28.73;;;28.10;70.40;;;;;;5051425;28;20473;-46
2023/01/07 09:46:35;;;;;;;34.65;29.67;;;26.70;70.80;;;;;;5051262;28;20150;-46
2023/01/07 09:49:02;;;;;;;32.08;28.83;;;26.70;71.90;;;;;;5052354;28;20353;-45
2023/01/07 09:51:36;;;;;;;38.80;34.80;;;27.30;71.10;;;;;;5052352;28;20028;-45
2023/01/07 09:54:07;;;;;;;29.70;26.77;;;27.70;71.80;;;;;;5053415;28;20037;-44
2023/01/07 09:56:35;;;;;;;31.83;28.83;;;28.30;70.70;;;;;;5053125;28;20059;-46
2023/01/07 09:59:03;;;;;;;33.58;30.20;;;;;;;;;;5053240;28;20392;-45
2023/01/07 10:01:37;;;;;;;32.70;29.27;;;28.30;97.40;;;;;;5051672;28;20082;-46
2023/01/07 10:04:25;;;;;;;33.83;30.20;;;27.80;70.40;;;;;;5051836;28;20043;-45
2023/01/07 10:07:08;;;;;;;31.58;27.40;;;27.80;70.90;;;;;;5052541;28;20111;-45
2023/01/07 10:09:42;;;;;;;33.63;30.33;;;27.70;71.40;;;;;;5049313;28;20102;-46
2023/01/07 10:12:31;;;;;;;34.67;31.48;;;28.20;71.30;;;;;;5052405;28;20378;-46
2023/01/07 10:15:13;;;;;;;32.67;29.20;;;28.60;70.90;;;;;;5051247;28;20421;-45
2023/01/07 10:18:13;;;;;;;33.17;29.67;;;28.80;71.50;;;;;;5032156;28;20112;-46
2023/01/07 10:20:45;;;;;;;34.42;27.80;;;27.50;72.00;;;;;;5048701;28;20057;-45
2023/01/07 10:23:34;;;;;;;30.75;26.45;;;28.10;72.20;;;;;;5051335;28;20040;-47
2023/01/07 10:26:02;;;;;;;29.08;25.98;;;27.90;72.20;;;;;;5012700;28;20425;-46
2023/01/07 10:28:28;;;;;;;27.35;24.38;;;;;;;;;;5018962;28;20041;-46
2023/01/07 10:30:53;;;;;;;30.38;27.08;;;27.90;95.10;;;;;;5029879;28;20075;-46
2023/01/07 10:33:24;;;;;;;30.40;26.73;;;;;;;;;;4986264;28;20513;-47
2023/01/07 10:36:13;;;;;;;27.90;24.40;;;27.90;71.80;;;;;;5016163;28;20042;-47
2023/01/07 10:38:44;;;;;;;24.90;22.25;;;27.90;72.50;;;;;;5032152;28;20125;-47
2023/01/07 10:41:21;;;;;;;25.73;22.83;;;27.60;72.90;;;;;;5012426;28;20044;-46
2023/01/07 10:44:13;;;;;;;26.52;22.35;;;27.10;73.30;;;;;;5015600;28;20274;-47
2023/01/07 10:46:55;;;;;;;25.60;22.77;;;27.30;73.40;;;;;;5019090;28;20041;-46
2023/01/07 10:49:39;;;;;;;25.27;22.13;;;26.10;74.70;;;;;;5014478;28;20050;-47
2023/01/07 10:52:12;;;;;;;24.95;22.23;;;26.00;75.00;;;;;;5018987;28;20038;-47
2023/01/07 10:55:25;;;;;;;30.67;22.83;;;25.60;77.40;;;;;;5016105;28;20029;-46
2023/01/07 10:57:51;;;;;;;27.75;23.48;;;;;;;;;;5021291;28;20072;-46
2023/01/07 11:00:18;;;;;;;23.20;20.73;;;;;;;;;;5029648;28;20107;-47
2023/01/07 11:02:49;;;;;;;24.08;21.05;;;26.00;84.00;;;;;;5029807;28;20042;-47
2023/01/07 11:05:19;;;;;;;28.25;23.63;;;25.10;76.20;;;;;;5028727;28;20051;-46
2023/01/07 11:07:51;;;;;;;25.70;21.57;;;;;;;;;;5028174;28;20068;-47
2023/01/07 11:10:21;;;;;;;25.70;21.10;;;;;;;;;;5028615;28;20471;-45
2023/01/07 11:12:57;;;;;;;25.35;22.40;;;23.40;77.80;;;;;;4995109;28;20041;-46
2023/01/07 11:15:55;;;;;;;28.83;22.65;;;23.10;78.20;;;;;;5028607;28;20562;-46
2023/01/07 11:18:57;;;;;;;27.35;23.23;;;22.30;79.70;;;;;;4983654;28;20050;-48
2023/01/07 11:21:39;;;;;;;28.23;22.95;;;23.10;81.00;;;;;;4977110;28;20728;-48
2023/01/07 11:24:25;;;;;;;26.67;21.38;;;23.10;80.40;;;;;;4980302;28;20158;-47
2023/01/07 11:26:58;;;;;;;24.35;21.73;;;22.70;79.90;;;;;;4984261;28;20118;-47
2023/01/07 11:29:41;;;;;;;26.70;22.75;;;22.00;80.60;;;;;;4978411;28;20137;-47
2023/01/07 11:32:19;;;;;;;25.55;22.65;;;21.80;81.50;;;;;;4973623;28;20074;-47
2023/01/07 11:34:51;;;;;;;31.95;25.55;;;22.10;82.30;;;;;;4986919;28;20038;-47
2023/01/07 11:37:30;;;;;;;48.88;33.30;;;21.90;91.40;;;;;;4992910;28;20493;-47
2023/01/07 11:40:01;;;;;;;31.98;27.08;;;21.10;82.90;;;;;;4973807;28;20066;-47
2023/01/07 11:42:37;;;;;;;31.58;25.75;;;21.20;84.00;;;;;;4992845;28;20034;-47
2023/01/07 11:45:38;;;;;;;28.50;24.98;;;21.00;83.60;;;;;;4992753;28;20437;-47
2023/01/07 11:48:04;;;;;;;31.23;25.17;;;21.00;84.00;;;;;;4992722;28;20034;-45
2023/01/07 11:50:30;;;;;;;38.92;28.20;;;;;;;;;;4992323;28;20172;-45
2023/01/07 11:53:20;;;;;;;34.65;29.45;;;20.30;99.90;;;;;;4992350;28;20058;-44
2023/01/07 11:55:56;;;;;;;39.95;33.22;;;;;;;;;;4971195;28;20050;-44
2023/01/07 11:58:23;;;;;;;36.85;30.98;;;;;;;;;;4940680;28;20119;-45
2023/01/07 12:01:02;;;;;;;40.22;33.58;;;;;;;;;;4973081;28;20054;-44
2023/01/07 12:03:28;;;;;;;42.90;33.90;;;19.80;86.60;;;;;;4940649;28;20070;-45
2023/01/07 12:06:06;;;;;;;38.97;34.83;;;20.00;86.80;;;;;;4976383;28;20030;-45
2023/01/07 12:08:32;;;;;;;41.03;35.00;;;19.70;87.20;;;;;;4991088;28;20073;-45
2023/01/07 12:11:05;;;;;;;42.53;36.33;;;19.80;88.10;;;;;;4955305;28;20046;-45
2023/01/07 12:13:33;;;;;;;41.60;34.55;;;19.30;88.40;;;;;;4975738;28;20406;-44
2023/01/07 12:16:04;;;;;;;41.30;33.72;;;19.10;89.10;;;;;;4992255;28;20061;-44
2023/01/07 12:18:44;;;;;;;39.08;33.88;;;;;;;;;;4992138;28;20545;-45
2023/01/07 12:21:10;;;;;;;40.22;32.95;;;;;;;;;;4992009;28;20117;-45
2023/01/07 12:23:36;;;;;;;42.00;35.13;;;;;;;;;;4993998;28;20026;-44
2023/01/07 12:26:08;;;;;;;40.28;31.58;;;19.40;99.90;;;;;;5011500;28;20084;-45
2023/01/07 12:29:03;;;;;;;39.65;32.97;;;19.00;88.60;;;;;;5010884;28;20037;-45
2023/01/07 12:32:00;;;;;;;38.67;33.60;;;18.60;89.40;;;;;;5011303;28;20046;-44
2023/01/07 12:34:56;;;;;;;40.00;31.10;;;18.20;90.20;;;;;;5033840;28;20025;-44
2023/01/07 12:37:40;;;;;;;40.15;33.78;;;18.00;90.20;;;;;;5034430;28;20187;-44
2023/01/07 12:40:35;;;;;;;43.15;33.97;;;18.20;90.30;;;;;;5033287;28;20068;-45
2023/01/07 12:43:18;;;;;;;43.38;35.03;;;18.20;90.20;;;;;;5050662;28;20021;-44
2023/01/07 12:45:50;;;;;;;49.53;38.85;;;18.10;90.80;;;;;;5051095;28;20021;-45
2023/01/07 12:48:42;;;;;;;51.30;40.13;;;18.10;90.50;;;;;;5033355;28;20033;-44
2023/01/07 12:51:22;;;;;;;49.95;39.33;;;18.30;90.60;;;;;;5052280;28;20039;-44
2023/01/07 12:54:05;;;;;;;51.40;39.10;;;17.70;91.00;;;;;;5041995;28;20064;-44
2023/01/07 12:56:45;;;;;;;47.22;37.38;;;18.20;90.70;;;;;;5048436;28;20487;-44
2023/01/07 12:59:23;;;;;;;43.63;36.22;;;17.80;91.00;;;;;;5030388;28;20436;-45
2023/01/07 13:01:56;;;;;;;48.08;36.88;;;18.10;91.20;;;;;;5047593;28;20033;-45
2023/01/07 13:04:58;;;;;;;47.10;36.97;;;18.00;90.70;;;;;;5069330;28;20037;-45
2023/01/07 13:07:34;;;;;;;48.88;37.17;;;17.90;90.80;;;;;;4970350;28;20406;-45
2023/01/07 13:10:04;;;;;;;44.75;35.08;;;;;;;;;;4967817;28;20070;-46